createdAt,value
2023-06-04T00:02:21.989Z,97256.22
2023-06-04T00:04:49.018Z,97249.59
2023-06-04T00:07:16.173Z,97258.53
2023-06-04T00:09:43.191Z,97246.75
2023-06-04T00:12:10.071Z,97251.25
2023-06-04T00:14:36.932Z,97249.50
2023-06-04T00:17:03.809Z,97251.19
2023-06-04T00:19:30.700Z,97250.34
2023-06-04T00:21:57.612Z,97250.06
2023-06-04T00:24:24.469Z,97244.63
2023-06-04T00:26:51.300Z,97251.72
2023-06-04T00:29:18.111Z,97243.34
2023-06-04T00:31:45.016Z,97254.84
2023-06-04T00:34:12.297Z,97258.13
2023-06-04T00:36:40.123Z,97250.78
2023-06-04T00:39:06.914Z,97254.22
2023-06-04T00:41:33.804Z,97248.28
2023-06-04T00:44:03.263Z,97256.75
2023-06-04T00:46:30.559Z,97249.28
2023-06-04T00:48:57.466Z,97253.44
2023-06-04T00:51:24.636Z,97247.69
2023-06-04T00:53:52.084Z,97241.81
2023-06-04T00:56:19.652Z,97246.88
2023-06-04T00:58:47.734Z,97245.31
2023-06-04T01:01:31.165Z,97255.16
2023-06-04T01:04:01.330Z,97257.16
2023-06-04T01:06:40.711Z,97266.75
2023-06-04T01:09:09.011Z,97252.94
2023-06-04T01:11:37.362Z,97262.66
2023-06-04T01:14:05.300Z,97256.69
2023-06-04T01:16:42.162Z,97263.06
2023-06-04T01:19:52.725Z,97256.72
2023-06-04T01:22:39.041Z,97259.94
2023-06-04T01:25:14.400Z,97262.84
2023-06-04T01:27:41.684Z,97260.66
2023-06-04T01:30:10.364Z,97264.03
2023-06-04T01:32:37.565Z,97261.72
2023-06-04T01:35:08.458Z,97264.91
2023-06-04T01:37:35.222Z,97269.66
2023-06-04T01:40:02.123Z,97266.66
2023-06-04T01:42:28.875Z,97258.16
2023-06-04T01:44:55.700Z,97268.38
2023-06-04T01:47:22.485Z,97259.06
2023-06-04T01:49:49.289Z,97258.69
2023-06-04T01:52:17.626Z,97254.84
2023-06-04T01:54:44.526Z,97267.72
2023-06-04T01:57:11.531Z,97272.44
2023-06-04T01:59:38.555Z,97267.59
2023-06-04T02:02:06.318Z,97272.50
2023-06-04T02:04:33.155Z,97272.63
2023-06-04T02:07:00.780Z,97274.97
2023-06-04T02:09:27.593Z,97275.41
2023-06-04T02:11:54.833Z,97276.41
2023-06-04T02:14:21.586Z,97272.19
2023-06-04T02:16:51.200Z,97272.56
2023-06-04T02:19:20.135Z,97270.59
2023-06-04T02:21:46.998Z,97269.81
2023-06-04T02:24:14.030Z,97271.72
2023-06-04T02:26:40.926Z,97274.25
2023-06-04T02:29:07.800Z,97273.84
2023-06-04T02:31:34.614Z,97271.31
2023-06-04T02:34:01.816Z,97279.31
2023-06-04T02:36:30.072Z,97274.16
2023-06-04T02:38:57.109Z,97268.72
2023-06-04T02:41:25.085Z,97268.75
2023-06-04T02:43:51.852Z,97268.75
2023-06-04T02:46:18.679Z,97271.66
2023-06-04T02:48:45.460Z,97263.16
2023-06-04T02:51:12.988Z,97269.84
2023-06-04T02:53:39.869Z,97271.03
2023-06-04T02:56:07.453Z,97275.00
2023-06-04T02:58:40.398Z,97273.97
2023-06-04T03:01:08.606Z,97271.44
2023-06-04T03:03:36.898Z,97272.28
2023-06-04T03:06:06.077Z,97271.50
2023-06-04T03:08:33.016Z,97277.94
2023-06-04T03:10:59.797Z,97278.66
2023-06-04T03:13:26.679Z,97282.19
2023-06-04T03:15:53.499Z,97287.66
2023-06-04T03:18:20.265Z,97287.59
2023-06-04T03:20:47.009Z,97290.03
2023-06-04T03:23:13.804Z,97289.34
2023-06-04T03:25:40.594Z,97293.66
2023-06-04T03:28:07.379Z,97296.16
2023-06-04T03:30:34.185Z,97303.56
2023-06-04T03:33:01.691Z,97305.78
2023-06-04T03:35:28.500Z,97302.94
2023-06-04T03:37:56.446Z,97302.16
2023-06-04T03:40:23.258Z,97302.97
2023-06-04T03:42:50.071Z,97302.75
2023-06-04T03:45:16.903Z,97299.63
2023-06-04T03:47:43.751Z,97305.44
2023-06-04T03:50:11.141Z,97306.47
2023-06-04T03:52:37.958Z,97303.16
2023-06-04T03:55:05.350Z,97304.31
2023-06-04T03:57:32.245Z,97312.28
2023-06-04T03:59:59.025Z,97307.16
2023-06-04T04:02:25.961Z,97315.66
2023-06-04T04:04:55.541Z,97316.84
2023-06-04T04:07:22.477Z,97311.69
2023-06-04T04:09:49.261Z,97311.19
2023-06-04T04:12:16.109Z,97310.72
2023-06-04T04:14:42.836Z,97311.09
2023-06-04T04:17:09.780Z,97316.13
2023-06-04T04:19:37.345Z,97308.41
2023-06-04T04:22:04.286Z,97317.56
2023-06-04T04:24:31.088Z,97313.03
2023-06-04T04:26:59.944Z,97320.31
2023-06-04T04:29:28.922Z,97324.94
2023-06-04T04:31:57.700Z,97328.72
2023-06-04T04:34:27.832Z,97325.25
2023-06-04T04:36:54.606Z,97329.06
2023-06-04T04:39:24.356Z,97325.06
2023-06-04T04:41:51.439Z,97326.56
2023-06-04T04:44:18.491Z,97331.88
2023-06-04T04:46:45.335Z,97336.56
2023-06-04T04:49:12.146Z,97334.72
2023-06-04T04:51:38.883Z,97339.91
2023-06-04T04:54:05.726Z,97331.75
2023-06-04T04:56:35.758Z,97341.22
2023-06-04T04:59:03.345Z,97340.88
2023-06-04T05:01:32.961Z,97337.22
2023-06-04T05:04:01.261Z,97343.72
2023-06-04T05:06:30.031Z,97348.22
2023-06-04T05:08:56.830Z,97351.38
2023-06-04T05:11:23.699Z,97353.22
2023-06-04T05:13:50.796Z,97353.84
2023-06-04T05:16:17.782Z,97356.88
2023-06-04T05:18:46.180Z,97359.56
2023-06-04T05:21:15.712Z,97362.06
2023-06-04T05:23:43.707Z,97367.56
2023-06-04T05:26:10.731Z,97372.88
2023-06-04T05:28:37.462Z,97372.88
2023-06-04T05:31:04.297Z,97378.22
2023-06-04T05:33:32.377Z,97375.38
2023-06-04T05:36:00.271Z,97381.50
2023-06-04T05:38:28.286Z,97381.50
2023-06-04T05:40:56.374Z,97379.69
2023-06-04T05:43:24.005Z,97382.84
2023-06-04T05:45:51.309Z,97380.81
2023-06-04T05:48:18.378Z,97387.00
2023-06-04T05:50:45.371Z,97383.31
2023-06-04T05:53:12.248Z,97393.16
2023-06-04T05:55:40.709Z,97392.97
2023-06-04T05:58:07.719Z,97393.16
2023-06-04T06:00:34.472Z,97397.00
2023-06-04T06:03:02.897Z,97391.84
2023-06-04T06:05:29.804Z,97398.84
2023-06-04T06:07:57.381Z,97398.84
2023-06-04T06:10:24.733Z,97398.19
2023-06-04T06:12:51.548Z,97399.66
2023-06-04T06:15:18.382Z,97401.34
2023-06-04T06:17:45.307Z,97404.16
2023-06-04T06:20:14.608Z,97402.81
2023-06-04T06:22:42.542Z,97400.16
2023-06-04T06:25:09.586Z,97396.00
2023-06-04T06:27:36.432Z,97401.16
2023-06-04T06:30:03.461Z,97411.16
2023-06-04T06:32:30.208Z,97411.00
2023-06-04T06:34:56.977Z,97414.84
2023-06-04T06:37:23.734Z,97402.16
2023-06-04T06:39:50.800Z,97412.81
2023-06-04T06:42:19.694Z,97409.50
2023-06-04T06:44:46.452Z,97419.00
2023-06-04T06:47:15.288Z,97419.16
2023-06-04T06:49:42.505Z,97426.00
2023-06-04T06:52:09.336Z,97422.84
2023-06-04T06:54:36.085Z,97425.16
2023-06-04T06:57:04.031Z,97426.00
2023-06-04T06:59:30.867Z,97416.19
2023-06-04T07:01:57.664Z,97417.84
2023-06-04T07:04:24.520Z,97425.50
2023-06-04T07:06:51.335Z,97421.84
2023-06-04T07:09:18.528Z,97426.84
2023-06-04T07:11:45.325Z,97427.69
2023-06-04T07:14:12.494Z,97424.66
2023-06-04T07:16:39.317Z,97421.84
2023-06-04T07:19:06.188Z,97419.34
2023-06-04T07:21:39.166Z,97418.50
2023-06-04T07:24:06.272Z,97420.16
2023-06-04T07:26:35.099Z,97411.16
2023-06-04T07:29:02.177Z,97407.16
2023-06-04T07:31:29.059Z,97421.16
2023-06-04T07:33:55.989Z,97415.31
2023-06-04T07:36:24.002Z,97413.66
2023-06-04T07:38:50.932Z,97415.97
2023-06-04T07:41:17.770Z,97424.81
2023-06-04T07:43:45.097Z,97418.81
2023-06-04T07:46:12.613Z,97419.31
2023-06-04T07:48:39.378Z,97409.31
2023-06-04T07:51:06.532Z,97411.13
2023-06-04T07:53:33.578Z,97410.34
2023-06-04T07:56:00.497Z,97405.31
2023-06-04T07:58:27.549Z,97409.31
2023-06-04T08:00:54.829Z,97404.28
2023-06-04T08:03:22.108Z,97416.63
2023-06-04T08:05:49.228Z,97398.94
2023-06-04T08:08:16.112Z,97407.59
2023-06-04T08:10:42.974Z,97412.09
2023-06-04T08:13:12.641Z,97410.75
2023-06-04T08:15:39.396Z,97414.75
2023-06-04T08:18:06.264Z,97406.75
2023-06-04T08:20:33.079Z,97407.41
2023-06-04T08:22:59.812Z,97405.25
2023-06-04T08:25:26.573Z,97403.75
2023-06-04T08:27:53.484Z,97406.44
2023-06-04T08:30:20.446Z,97415.09
2023-06-04T08:32:47.282Z,97415.41
2023-06-04T08:35:14.160Z,97413.22
2023-06-04T08:37:41.556Z,97407.72
2023-06-04T08:40:10.324Z,97398.53
2023-06-04T08:42:45.973Z,97416.38
2023-06-04T08:45:14.572Z,97410.03
2023-06-04T08:47:49.434Z,97411.50
2023-06-04T08:50:19.391Z,97407.34
2023-06-04T08:52:46.487Z,97410.69
2023-06-04T08:55:15.223Z,97405.00
2023-06-04T08:57:42.111Z,97407.84
2023-06-04T09:00:09.941Z,97409.50
2023-06-04T09:02:39.620Z,97404.50
2023-06-04T09:05:11.691Z,97412.50
2023-06-04T09:07:40.325Z,97411.16
2023-06-04T09:10:13.001Z,97405.00
2023-06-04T09:12:45.010Z,97412.50
2023-06-04T09:15:12.482Z,97412.00
2023-06-04T09:17:39.561Z,97414.13
2023-06-04T09:20:10.128Z,97403.47
2023-06-04T09:22:38.344Z,97406.13
2023-06-04T09:25:10.713Z,97405.28
2023-06-04T09:27:41.820Z,97402.44
2023-06-04T09:30:12.278Z,97393.25
2023-06-04T09:32:39.153Z,97399.91
2023-06-04T09:35:12.903Z,97402.56
2023-06-04T09:37:44.309Z,97396.22
2023-06-04T09:40:11.860Z,97403.59
2023-06-04T09:42:46.253Z,97404.41
2023-06-04T09:45:13.476Z,97403.88
2023-06-04T09:47:44.354Z,97399.19
2023-06-04T09:50:14.503Z,97398.19
2023-06-04T09:52:42.094Z,97399.84
2023-06-04T09:55:23.762Z,97402.31
2023-06-04T09:57:52.092Z,97394.78
2023-06-04T10:00:21.953Z,97389.44
2023-06-04T10:02:50.159Z,97386.78
2023-06-04T10:05:17.691Z,97391.75
2023-06-04T10:07:45.945Z,97392.41
2023-06-04T10:10:17.765Z,97382.75
2023-06-04T10:12:46.619Z,97380.72
2023-06-04T10:15:14.709Z,97378.72
2023-06-04T10:17:42.324Z,97382.88
2023-06-04T10:20:10.204Z,97387.84
2023-06-04T10:22:37.773Z,97384.00
2023-06-04T10:25:05.506Z,97384.09
2023-06-04T10:27:33.537Z,97391.66
2023-06-04T10:30:00.992Z,97395.16
2023-06-04T10:32:29.643Z,97392.94
2023-06-04T10:34:58.648Z,97390.94
2023-06-04T10:37:27.141Z,97384.22
2023-06-04T10:39:55.458Z,97388.38
2023-06-04T10:42:23.558Z,97390.50
2023-06-04T10:44:57.878Z,97382.78
2023-06-04T10:47:35.293Z,97386.09
2023-06-04T10:50:12.137Z,97392.97
2023-06-04T10:52:41.194Z,97389.09
2023-06-04T10:55:09.784Z,97382.28
2023-06-04T10:57:37.872Z,97390.59
2023-06-04T11:00:10.828Z,97384.88
2023-06-04T11:02:39.601Z,97391.59
2023-06-04T11:05:10.085Z,97387.91
2023-06-04T11:07:51.455Z,97380.72
2023-06-04T11:10:18.859Z,97390.22
2023-06-04T11:12:47.256Z,97375.00
2023-06-04T11:15:15.154Z,97370.03
2023-06-04T11:17:56.001Z,97380.00
2023-06-04T11:20:24.430Z,97376.31
2023-06-04T11:22:59.580Z,97377.16
2023-06-04T11:25:27.626Z,97384.97
2023-06-04T11:27:55.667Z,97382.97
2023-06-04T11:30:23.218Z,97383.59
2023-06-04T11:32:50.687Z,97380.09
2023-06-04T11:35:17.766Z,97375.41
2023-06-04T11:37:55.411Z,97373.81
2023-06-04T11:40:22.587Z,97376.97
2023-06-04T11:42:50.830Z,97368.09
2023-06-04T11:45:19.834Z,97376.22
2023-06-04T11:47:54.170Z,97368.03
2023-06-04T11:50:21.785Z,97374.28
2023-06-04T11:52:49.638Z,97368.94
2023-06-04T11:55:22.981Z,97366.47
2023-06-04T11:57:51.636Z,97359.91
2023-06-04T12:00:20.470Z,97366.91
2023-06-04T12:02:55.727Z,97357.69
2023-06-04T12:05:33.246Z,97359.00
2023-06-04T12:08:12.470Z,97357.16
2023-06-04T12:10:43.428Z,97353.47
2023-06-04T12:13:10.975Z,97354.47
2023-06-04T12:15:37.798Z,97344.25
2023-06-04T12:18:06.346Z,97345.34
2023-06-04T12:20:38.407Z,97342.31
2023-06-04T12:23:07.439Z,97344.50
2023-06-04T12:25:35.946Z,97344.13
2023-06-04T12:28:05.650Z,97346.34
2023-06-04T12:30:42.106Z,97342.13
2023-06-04T12:33:09.170Z,97340.91
2023-06-04T12:35:36.648Z,97346.72
2023-06-04T12:38:06.867Z,97337.69
2023-06-04T12:40:33.815Z,97346.19
2023-06-04T12:43:01.136Z,97330.78
2023-06-04T12:45:28.233Z,97335.38
2023-06-04T12:47:55.043Z,97334.00
2023-06-04T12:50:22.913Z,97334.25
2023-06-04T12:52:50.084Z,97332.53
2023-06-04T12:55:16.975Z,97328.38
2023-06-04T12:57:45.931Z,97332.53
2023-06-04T13:00:13.164Z,97325.97
2023-06-04T13:02:40.069Z,97323.28
2023-06-04T13:05:07.183Z,97323.75
2023-06-04T13:07:34.531Z,97324.38
2023-06-04T13:10:01.840Z,97321.13
2023-06-04T13:12:28.600Z,97320.75
2023-06-04T13:14:56.442Z,97317.88
2023-06-04T13:17:23.504Z,97311.31
2023-06-04T13:19:51.149Z,97313.22
2023-06-04T13:22:18.068Z,97314.50
2023-06-04T13:24:44.841Z,97316.44
2023-06-04T13:27:11.583Z,97312.16
2023-06-04T13:29:38.415Z,97317.34
2023-06-04T13:32:05.637Z,97303.75
2023-06-04T13:34:33.400Z,97310.25
2023-06-04T13:37:00.364Z,97311.56
2023-06-04T13:39:27.294Z,97310.81
2023-06-04T13:41:54.098Z,97307.03
2023-06-04T13:44:27.446Z,97305.09
2023-06-04T13:46:55.065Z,97303.53
2023-06-04T13:49:22.562Z,97296.78
2023-06-04T13:51:49.401Z,97295.31
2023-06-04T13:54:16.390Z,97298.19
2023-06-04T13:56:43.208Z,97305.81
2023-06-04T13:59:09.991Z,97305.72
2023-06-04T14:01:37.762Z,97302.69
2023-06-04T14:04:07.711Z,97311.63
2023-06-04T14:06:37.283Z,97310.41
2023-06-04T14:09:05.050Z,97300.53
2023-06-04T14:11:33.883Z,97298.28
2023-06-04T14:14:00.799Z,97297.66
2023-06-04T14:16:27.650Z,97291.53
2023-06-04T14:18:54.729Z,97289.47
2023-06-04T14:21:22.295Z,97290.53
2023-06-04T14:23:50.458Z,97296.53
2023-06-04T14:26:19.142Z,97291.41
2023-06-04T14:28:46.193Z,97287.28
2023-06-04T14:31:13.245Z,97291.81
2023-06-04T14:33:40.877Z,97291.41
2023-06-04T14:36:07.880Z,97285.41
2023-06-04T14:38:34.770Z,97282.94
2023-06-04T14:41:01.557Z,97285.66
2023-06-04T14:43:28.291Z,97283.22
2023-06-04T14:45:55.129Z,97281.19
2023-06-04T14:48:21.991Z,97281.81
2023-06-04T14:50:49.060Z,97280.34
2023-06-04T14:53:15.826Z,97274.59
2023-06-04T14:55:42.923Z,97271.91
2023-06-04T14:58:09.731Z,97272.13
2023-06-04T15:00:36.850Z,97272.06
2023-06-04T15:03:04.341Z,97265.25
2023-06-04T15:05:33.462Z,97277.25
2023-06-04T15:08:01.006Z,97263.44
2023-06-04T15:10:28.026Z,97258.09
2023-06-04T15:12:54.871Z,97265.31
2023-06-04T15:15:22.042Z,97258.28
2023-06-04T15:17:49.964Z,97256.03
2023-06-04T15:20:17.159Z,97259.09
2023-06-04T15:22:43.951Z,97258.91
2023-06-04T15:25:10.973Z,97257.69
2023-06-04T15:27:39.953Z,97259.34
2023-06-04T15:30:07.626Z,97255.66
2023-06-04T15:32:35.514Z,97259.78
2023-06-04T15:35:03.407Z,97254.63
2023-06-04T15:37:30.330Z,97258.75
2023-06-04T15:39:59.037Z,97244.56
2023-06-04T15:42:26.010Z,97249.75
2023-06-04T15:44:52.823Z,97256.31
2023-06-04T15:47:19.597Z,97249.09
2023-06-04T15:49:46.441Z,97249.31
2023-06-04T15:52:13.305Z,97242.91
2023-06-04T15:54:46.502Z,97242.72
2023-06-04T15:57:14.422Z,97248.72
2023-06-04T15:59:42.366Z,97245.63
2023-06-04T16:02:09.287Z,97251.63
2023-06-04T16:04:36.320Z,97253.47
2023-06-04T16:07:03.811Z,97247.28
2023-06-04T16:09:30.772Z,97243.34
2023-06-04T16:11:58.068Z,97253.06
2023-06-04T16:14:24.843Z,97244.81
2023-06-04T16:16:51.801Z,97246.47
2023-06-04T16:19:18.786Z,97251.00
2023-06-04T16:21:45.622Z,97245.41
2023-06-04T16:24:12.412Z,97246.88
2023-06-04T16:26:39.244Z,97247.44
2023-06-04T16:29:06.361Z,97248.09
2023-06-04T16:31:33.205Z,97250.38
2023-06-04T16:34:00.077Z,97246.47
2023-06-04T16:36:27.028Z,97243.78
2023-06-04T16:38:53.954Z,97240.50
2023-06-04T16:41:21.434Z,97228.00
2023-06-04T16:43:48.179Z,97229.03
2023-06-04T16:46:14.964Z,97228.19
2023-06-04T16:48:41.722Z,97231.72
2023-06-04T16:51:08.555Z,97226.97
2023-06-04T16:53:35.409Z,97227.81
2023-06-04T16:56:02.347Z,97224.28
2023-06-04T16:58:29.136Z,97223.47
2023-06-04T17:00:56.505Z,97229.66
2023-06-04T17:03:23.774Z,97235.22
2023-06-04T17:05:50.770Z,97233.56
2023-06-04T17:08:17.543Z,97232.34
2023-06-04T17:10:44.289Z,97229.22
2023-06-04T17:13:11.053Z,97224.69
2023-06-04T17:15:37.904Z,97229.22
2023-06-04T17:18:11.591Z,97232.94
2023-06-04T17:20:39.708Z,97235.03
2023-06-04T17:23:20.768Z,97229.47
2023-06-04T17:25:47.577Z,97232.97
2023-06-04T17:28:15.111Z,97241.25
2023-06-04T17:30:42.713Z,97235.88
2023-06-04T17:33:11.250Z,97242.66
2023-06-04T17:35:39.834Z,97245.97
2023-06-04T17:38:06.860Z,97242.28
2023-06-04T17:40:33.718Z,97235.84
2023-06-04T17:43:00.638Z,97247.78
2023-06-04T17:45:27.464Z,97243.66
2023-06-04T17:47:54.271Z,97241.22
2023-06-04T17:50:21.125Z,97242.66
2023-06-04T17:52:48.410Z,97246.38
2023-06-04T17:55:16.262Z,97255.25
2023-06-04T17:57:43.200Z,97251.94
2023-06-04T18:00:10.822Z,97246.34
2023-06-04T18:02:37.595Z,97256.59
2023-06-04T18:05:04.588Z,97252.06
2023-06-04T18:07:31.404Z,97244.03
2023-06-04T18:10:01.223Z,97251.88
2023-06-04T18:12:28.419Z,97257.22
2023-06-04T18:14:55.361Z,97260.31
2023-06-04T18:17:22.297Z,97262.75
2023-06-04T18:19:50.123Z,97261.13
2023-06-04T18:22:16.962Z,97265.66
2023-06-04T18:24:43.788Z,97258.03
2023-06-04T18:27:10.887Z,97255.34
2023-06-04T18:29:37.816Z,97261.91
2023-06-04T18:32:05.238Z,97261.09
2023-06-04T18:34:32.130Z,97272.84
2023-06-04T18:36:59.020Z,97266.03
2023-06-04T18:39:27.531Z,97278.59
2023-06-04T18:41:56.349Z,97276.31
2023-06-04T18:44:23.918Z,97274.44
2023-06-04T18:46:51.721Z,97273.22
2023-06-04T18:49:22.746Z,97263.53
2023-06-04T18:51:54.344Z,97270.94
2023-06-04T18:54:21.239Z,97264.31
2023-06-04T18:56:48.100Z,97268.22
2023-06-04T18:59:16.379Z,97265.53
2023-06-04T19:01:44.385Z,97271.91
2023-06-04T19:04:13.929Z,97272.75
2023-06-04T19:06:41.669Z,97269.63
2023-06-04T19:09:08.846Z,97275.19
2023-06-04T19:11:37.391Z,97276.84
2023-06-04T19:14:11.194Z,97270.47
2023-06-04T19:16:37.973Z,97272.69
2023-06-04T19:19:09.047Z,97273.09
2023-06-04T19:21:37.674Z,97276.78
2023-06-04T19:24:05.880Z,97283.63
2023-06-04T19:26:32.854Z,97274.13
2023-06-04T19:28:59.626Z,97276.16
2023-06-04T19:31:29.019Z,97277.00
2023-06-04T19:33:56.374Z,97280.69
2023-06-04T19:36:23.249Z,97274.50
2023-06-04T19:38:50.042Z,97279.03
2023-06-04T19:41:16.865Z,97288.09
2023-06-04T19:43:43.841Z,97284.16
2023-06-04T19:46:10.617Z,97289.31
2023-06-04T19:48:39.509Z,97293.00
2023-06-04T19:51:06.427Z,97286.81
2023-06-04T19:53:33.284Z,97289.69
2023-06-04T19:56:00.302Z,97297.34
2023-06-04T19:58:27.896Z,97308.25
2023-06-04T20:00:56.076Z,97315.06
2023-06-04T20:03:24.344Z,97313.09
2023-06-04T20:05:51.310Z,97310.41
2023-06-04T20:08:18.215Z,97308.50
2023-06-04T20:10:46.679Z,97309.78
2023-06-04T20:13:13.581Z,97313.28
2023-06-04T20:15:40.509Z,97318.00
2023-06-04T20:18:07.624Z,97315.91
2023-06-04T20:20:35.086Z,97318.38
2023-06-04T20:23:02.015Z,97314.69
2023-06-04T20:25:28.799Z,97308.50
2023-06-04T20:27:55.976Z,97316.63
2023-06-04T20:30:23.024Z,97313.97
2023-06-04T20:32:54.389Z,97309.56
2023-06-04T20:35:21.998Z,97325.19
2023-06-04T20:37:48.955Z,97311.41
2023-06-04T20:40:15.995Z,97316.13
2023-06-04T20:42:42.777Z,97310.25
2023-06-04T20:45:09.848Z,97318.72
2023-06-04T20:47:36.668Z,97310.81
2023-06-04T20:50:03.725Z,97319.59
2023-06-04T20:52:30.521Z,97323.19
2023-06-04T20:54:57.292Z,97321.78
2023-06-04T20:57:24.065Z,97321.38
2023-06-04T20:59:50.801Z,97326.88
2023-06-04T21:02:17.646Z,97318.44
2023-06-04T21:04:44.512Z,97318.84
2023-06-04T21:07:14.059Z,97319.09
2023-06-04T21:09:41.070Z,97325.06
2023-06-04T21:12:08.120Z,97321.75
2023-06-04T21:14:35.120Z,97318.41
2023-06-04T21:17:01.941Z,97320.81
2023-06-04T21:19:30.553Z,97319.78
2023-06-04T21:21:57.696Z,97317.44
2023-06-04T21:24:24.488Z,97321.72
2023-06-04T21:26:51.189Z,97323.75
2023-06-04T21:29:17.918Z,97322.00
2023-06-04T21:31:44.791Z,97322.38
2023-06-04T21:34:11.802Z,97320.97
2023-06-04T21:36:38.733Z,97319.06
2023-06-04T21:39:05.673Z,97319.06
2023-06-04T21:41:32.510Z,97323.47
2023-06-04T21:43:59.329Z,97327.53
2023-06-04T21:46:29.757Z,97325.50
2023-06-04T21:48:56.581Z,97318.78
2023-06-04T21:51:23.391Z,97326.53
2023-06-04T21:53:50.186Z,97324.59
2023-06-04T21:56:16.925Z,97321.38
2023-06-04T21:58:44.318Z,97323.00
2023-06-04T22:01:11.506Z,97324.88
2023-06-04T22:03:38.742Z,97325.06
2023-06-04T22:06:05.644Z,97317.13
2023-06-04T22:08:32.429Z,97315.28
2023-06-04T22:10:59.188Z,97319.06
2023-06-04T22:13:26.118Z,97312.78
2023-06-04T22:15:52.988Z,97303.75
2023-06-04T22:18:19.834Z,97312.16
2023-06-04T22:20:46.704Z,97302.81
2023-06-04T22:23:16.460Z,97315.56
2023-06-04T22:25:43.283Z,97313.81
2023-06-04T22:28:10.036Z,97306.44
2023-06-04T22:30:36.834Z,97307.91
2023-06-04T22:33:03.674Z,97307.44
2023-06-04T22:35:30.794Z,97308.44
2023-06-04T22:37:57.683Z,97306.25
2023-06-04T22:40:24.452Z,97305.78
2023-06-04T22:42:51.354Z,97313.34
2023-06-04T22:45:18.172Z,97318.22
2023-06-04T22:47:44.992Z,97302.38
2023-06-04T22:50:12.384Z,97314.91
2023-06-04T22:52:41.271Z,97302.84
2023-06-04T22:55:09.772Z,97306.34
2023-06-04T22:57:39.446Z,97308.75
2023-06-04T23:00:07.873Z,97311.69
2023-06-04T23:02:34.792Z,97305.97
2023-06-04T23:05:01.936Z,97304.50
2023-06-04T23:07:28.766Z,97302.94
2023-06-04T23:09:55.654Z,97309.56
2023-06-04T23:12:22.403Z,97307.91
2023-06-04T23:14:49.158Z,97311.13
2023-06-04T23:17:16.004Z,97316.47
2023-06-04T23:19:42.798Z,97307.81
2023-06-04T23:22:09.523Z,97310.84
2023-06-04T23:24:36.286Z,97310.13
2023-06-04T23:27:03.492Z,97303.56
2023-06-04T23:29:30.368Z,97309.09
2023-06-04T23:31:57.132Z,97306.25
2023-06-04T23:34:23.970Z,97307.44
2023-06-04T23:36:50.689Z,97316.47
2023-06-04T23:39:18.246Z,97310.59
2023-06-04T23:41:45.008Z,97313.16
2023-06-04T23:44:11.781Z,97312.78
2023-06-04T23:46:38.702Z,97305.97
2023-06-04T23:49:05.869Z,97314.00
2023-06-04T23:51:32.629Z,97315.56
2023-06-04T23:53:59.390Z,97315.56
2023-06-04T23:56:26.396Z,97321.56
2023-06-04T23:58:53.424Z,97307.19
